createdAt,value
2023-05-14T00:02:08.429Z,101790.03
2023-05-14T00:04:35.570Z,101789.03
2023-05-14T00:07:03.033Z,101795.13
2023-05-14T00:09:30.872Z,101791.81
2023-05-14T00:11:58.031Z,101800.38
2023-05-14T00:14:25.076Z,101801.00
2023-05-14T00:16:52.136Z,101802.66
2023-05-14T00:19:19.257Z,101799.88
2023-05-14T00:21:47.127Z,101791.22
2023-05-14T00:24:14.253Z,101788.59
2023-05-14T00:26:41.393Z,101787.75
2023-05-14T00:29:08.478Z,101766.72
2023-05-14T00:31:35.957Z,101763.34
2023-05-14T00:34:03.450Z,101769.47
2023-05-14T00:36:31.646Z,101761.66
2023-05-14T00:38:58.758Z,101756.34
2023-05-14T00:41:25.896Z,101743.19
2023-05-14T00:43:52.906Z,101750.19
2023-05-14T00:46:20.314Z,101737.91
2023-05-14T00:48:48.451Z,101739.53
2023-05-14T00:51:16.637Z,101741.25
2023-05-14T00:53:43.950Z,101731.69
2023-05-14T00:56:11.013Z,101734.28
2023-05-14T00:58:38.139Z,101721.16
2023-05-14T01:01:05.662Z,101715.03
2023-05-14T01:03:33.058Z,101710.66
2023-05-14T01:06:17.824Z,101709.91
2023-05-14T01:09:01.656Z,101712.41
2023-05-14T01:11:30.446Z,101714.19
2023-05-14T01:14:16.688Z,101709.78
2023-05-14T01:16:46.967Z,101705.41
2023-05-14T01:19:34.389Z,101700.91
2023-05-14T01:22:02.536Z,101696.53
2023-05-14T01:24:29.843Z,101701.69
2023-05-14T01:27:01.994Z,101708.69
2023-05-14T01:29:29.688Z,101704.31
2023-05-14T01:31:57.736Z,101708.75
2023-05-14T01:34:25.875Z,101707.97
2023-05-14T01:36:53.784Z,101706.09
2023-05-14T01:39:21.319Z,101652.78
2023-05-14T01:41:49.156Z,101714.69
2023-05-14T01:44:16.318Z,101705.13
2023-05-14T01:46:43.410Z,101702.50
2023-05-14T01:49:10.527Z,101701.53
2023-05-14T01:51:38.130Z,101697.22
2023-05-14T01:54:05.761Z,101698.88
2023-05-14T01:56:33.035Z,101698.03
2023-05-14T01:59:00.445Z,101698.06
2023-05-14T02:01:27.682Z,101691.03
2023-05-14T02:03:54.744Z,101692.75
2023-05-14T02:06:22.217Z,101680.50
2023-05-14T02:08:49.353Z,101685.72
2023-05-14T02:11:17.374Z,101689.09
2023-05-14T02:13:44.698Z,101700.41
2023-05-14T02:16:11.894Z,101696.38
2023-05-14T02:18:39.051Z,101704.00
2023-05-14T02:21:06.129Z,101702.09
2023-05-14T02:23:41.089Z,101699.50
2023-05-14T02:26:10.023Z,101698.50
2023-05-14T02:28:37.107Z,101706.38
2023-05-14T02:31:04.571Z,101703.03
2023-05-14T02:33:31.745Z,101695.91
2023-05-14T02:35:59.253Z,101697.59
2023-05-14T02:38:26.708Z,101699.34
2023-05-14T02:40:56.652Z,101702.59
2023-05-14T02:43:23.916Z,101699.00
2023-05-14T02:45:52.399Z,101698.91
2023-05-14T02:48:19.556Z,101697.00
2023-05-14T02:50:47.826Z,101699.44
2023-05-14T02:53:15.903Z,101703.78
2023-05-14T02:55:43.210Z,101705.53
2023-05-14T02:58:10.695Z,101711.59
2023-05-14T03:00:37.805Z,101709.66
2023-05-14T03:03:05.527Z,101705.13
2023-05-14T03:05:33.520Z,101714.84
2023-05-14T03:08:01.245Z,101711.28
2023-05-14T03:10:28.371Z,101713.66
2023-05-14T03:12:55.528Z,101704.88
2023-05-14T03:15:22.627Z,101698.84
2023-05-14T03:17:50.448Z,101692.34
2023-05-14T03:20:18.077Z,101704.53
2023-05-14T03:22:47.583Z,101706.03
2023-05-14T03:25:17.924Z,101714.78
2023-05-14T03:27:45.004Z,101714.78
2023-05-14T03:30:12.216Z,101712.13
2023-05-14T03:32:40.377Z,101711.06
2023-05-14T03:35:08.214Z,101711.84
2023-05-14T03:37:35.580Z,101713.41
2023-05-14T03:40:03.033Z,101719.53
2023-05-14T03:42:30.258Z,101722.13
2023-05-14T03:44:58.654Z,101729.84
2023-05-14T03:47:25.847Z,101725.41
2023-05-14T03:49:53.815Z,101726.09
2023-05-14T03:52:21.165Z,101732.13
2023-05-14T03:54:48.391Z,101727.53
2023-05-14T03:57:16.031Z,101724.75
2023-05-14T03:59:43.233Z,101723.75
2023-05-14T04:02:10.312Z,101722.81
2023-05-14T04:04:37.738Z,101723.75
2023-05-14T04:07:05.444Z,101725.13
2023-05-14T04:09:32.985Z,101727.66
2023-05-14T04:12:00.180Z,101719.53
2023-05-14T04:14:27.566Z,101730.75
2023-05-14T04:16:54.633Z,101725.31
2023-05-14T04:19:22.058Z,101726.06
2023-05-14T04:21:49.200Z,101731.28
2023-05-14T04:24:17.808Z,101729.47
2023-05-14T04:26:44.852Z,101729.50
2023-05-14T04:29:12.056Z,101720.00
2023-05-14T04:31:39.289Z,101716.50
2023-05-14T04:34:06.384Z,101715.66
2023-05-14T04:36:33.755Z,101714.72
2023-05-14T04:39:00.837Z,101720.69
2023-05-14T04:41:28.003Z,101724.91
2023-05-14T04:43:56.698Z,101720.28
2023-05-14T04:46:23.871Z,101718.44
2023-05-14T04:48:52.226Z,101720.88
2023-05-14T04:51:19.227Z,101713.81
2023-05-14T04:53:46.785Z,101717.25
2023-05-14T04:56:13.821Z,101711.88
2023-05-14T04:58:41.352Z,101717.81
2023-05-14T05:01:08.414Z,101710.75
2023-05-14T05:03:35.701Z,101723.63
2023-05-14T05:06:02.897Z,101721.84
2023-05-14T05:08:30.011Z,101721.84
2023-05-14T05:10:57.388Z,101713.97
2023-05-14T05:13:29.545Z,101712.19
2023-05-14T05:16:00.947Z,101720.09
2023-05-14T05:18:35.934Z,101719.16
2023-05-14T05:21:17.006Z,101718.94
2023-05-14T05:23:45.614Z,101722.44
2023-05-14T05:26:14.182Z,101735.47
2023-05-14T05:28:45.573Z,101737.28
2023-05-14T05:31:14.522Z,101732.13
2023-05-14T05:33:46.071Z,101736.50
2023-05-14T05:36:19.881Z,101739.31
2023-05-14T05:39:12.460Z,101746.44
2023-05-14T05:41:58.989Z,101740.56
2023-05-14T05:44:41.302Z,101742.28
2023-05-14T05:47:14.252Z,101748.41
2023-05-14T05:49:51.762Z,101755.47
2023-05-14T05:52:19.929Z,101747.72
2023-05-14T05:54:52.200Z,101751.25
2023-05-14T05:57:25.708Z,101755.69
2023-05-14T06:00:07.240Z,101743.75
2023-05-14T06:02:54.396Z,101756.94
2023-05-14T06:05:26.220Z,101761.56
2023-05-14T06:07:57.608Z,101777.53
2023-05-14T06:10:30.213Z,101763.13
2023-05-14T06:13:04.302Z,101771.16
2023-05-14T06:15:33.125Z,101776.44
2023-05-14T06:18:00.866Z,101776.59
2023-05-14T06:20:29.086Z,101778.59
2023-05-14T06:22:56.280Z,101779.53
2023-05-14T06:25:23.438Z,101791.38
2023-05-14T06:27:50.604Z,101785.78
2023-05-14T06:30:26.670Z,101790.13
2023-05-14T06:32:55.072Z,101784.56
2023-05-14T06:35:22.520Z,101789.00
2023-05-14T06:37:50.782Z,101793.69
2023-05-14T06:40:24.017Z,101796.69
2023-05-14T06:42:52.806Z,101795.84
2023-05-14T06:45:21.037Z,101797.84
2023-05-14T06:47:55.105Z,101805.28
2023-05-14T06:50:23.853Z,101800.38
2023-05-14T06:52:57.783Z,101804.81
2023-05-14T06:55:28.944Z,101802.88
2023-05-14T06:57:56.606Z,101796.91
2023-05-14T07:00:27.616Z,101796.66
2023-05-14T07:03:07.580Z,101795.50
2023-05-14T07:05:38.853Z,101788.38
2023-05-14T07:08:06.220Z,101785.16
2023-05-14T07:10:36.995Z,101786.09
2023-05-14T07:13:04.084Z,101788.97
2023-05-14T07:15:32.248Z,101780.84
2023-05-14T07:17:59.985Z,101785.28
2023-05-14T07:20:29.742Z,101775.72
2023-05-14T07:22:59.413Z,101775.97
2023-05-14T07:25:28.235Z,101763.88
2023-05-14T07:27:56.391Z,101763.25
2023-05-14T07:30:24.438Z,101763.50
2023-05-14T07:32:52.557Z,101766.06
2023-05-14T07:35:19.695Z,101761.78
2023-05-14T07:37:47.001Z,101764.47
2023-05-14T07:40:14.115Z,101765.69
2023-05-14T07:42:42.111Z,101755.38
2023-05-14T07:45:10.183Z,101758.91
2023-05-14T07:47:38.313Z,101761.72
2023-05-14T07:50:06.119Z,101763.69
2023-05-14T07:52:36.146Z,101757.41
2023-05-14T07:55:04.754Z,101755.94
2023-05-14T07:57:32.105Z,101754.94
2023-05-14T08:00:02.741Z,101755.28
2023-05-14T08:02:39.689Z,101754.44
2023-05-14T08:05:12.450Z,101751.88
2023-05-14T08:07:44.709Z,101748.41
2023-05-14T08:10:12.745Z,101754.59
2023-05-14T08:12:40.353Z,101760.78
2023-05-14T08:15:08.127Z,101760.03
2023-05-14T08:17:37.030Z,101747.75
2023-05-14T08:20:07.100Z,101753.97
2023-05-14T08:22:34.732Z,101753.25
2023-05-14T08:25:03.789Z,101744.59
2023-05-14T08:27:35.028Z,101734.94
2023-05-14T08:30:02.269Z,101738.56
2023-05-14T08:32:29.992Z,101742.00
2023-05-14T08:35:00.775Z,101737.81
2023-05-14T08:37:28.096Z,101736.00
2023-05-14T08:39:57.738Z,101735.22
2023-05-14T08:42:25.196Z,101741.44
2023-05-14T08:45:02.236Z,101741.53
2023-05-14T08:47:36.047Z,101734.56
2023-05-14T08:50:05.263Z,101732.03
2023-05-14T08:52:32.727Z,101725.00
2023-05-14T08:55:01.454Z,101722.44
2023-05-14T08:57:29.673Z,101725.00
2023-05-14T08:59:57.730Z,101735.56
2023-05-14T09:02:29.416Z,101718.94
2023-05-14T09:05:00.249Z,101732.13
2023-05-14T09:07:31.866Z,101729.41
2023-05-14T09:09:59.672Z,101733.75
2023-05-14T09:12:27.045Z,101734.66
2023-05-14T09:14:54.363Z,101735.56
2023-05-14T09:17:21.387Z,101735.56
2023-05-14T09:19:52.197Z,101730.34
2023-05-14T09:22:24.355Z,101734.78
2023-05-14T09:25:15.403Z,101736.56
2023-05-14T09:27:58.514Z,101740.13
2023-05-14T09:30:32.565Z,101730.44
2023-05-14T09:33:05.794Z,101739.22
2023-05-14T09:35:34.316Z,101729.53
2023-05-14T09:38:04.917Z,101737.47
2023-05-14T09:40:35.220Z,101731.28
2023-05-14T09:43:06.443Z,101732.19
2023-05-14T09:45:36.155Z,101735.75
2023-05-14T09:48:04.933Z,101737.50
2023-05-14T09:50:45.272Z,101741.06
2023-05-14T09:53:15.578Z,101741.94
2023-05-14T09:55:42.686Z,101741.97
2023-05-14T09:58:10.492Z,101745.47
2023-05-14T10:00:40.606Z,101750.78
2023-05-14T10:03:08.419Z,101748.13
2023-05-14T10:05:42.098Z,101749.00
2023-05-14T10:08:13.561Z,101748.13
2023-05-14T10:10:41.647Z,101743.69
2023-05-14T10:13:21.607Z,101738.34
2023-05-14T10:15:52.831Z,101744.50
2023-05-14T10:18:22.789Z,101753.38
2023-05-14T10:21:09.337Z,101748.09
2023-05-14T10:23:40.799Z,101749.81
2023-05-14T10:26:09.031Z,101743.59
2023-05-14T10:28:40.676Z,101742.69
2023-05-14T10:31:10.812Z,101739.13
2023-05-14T10:33:50.631Z,101747.00
2023-05-14T10:36:26.604Z,101739.09
2023-05-14T10:38:57.651Z,101743.44
2023-05-14T10:41:25.814Z,101731.06
2023-05-14T10:43:53.186Z,101741.59
2023-05-14T10:46:21.942Z,101737.13
2023-05-14T10:48:50.420Z,101744.22
2023-05-14T10:51:23.672Z,101742.31
2023-05-14T10:53:51.534Z,101735.38
2023-05-14T10:56:20.201Z,101745.97
2023-05-14T11:01:39.637Z,101741.63
2023-05-14T11:04:07.122Z,101737.19
2023-05-14T11:06:35.989Z,101749.47
2023-05-14T11:09:03.720Z,101745.84
2023-05-14T11:11:35.834Z,101739.56
2023-05-14T11:14:04.502Z,101736.84
2023-05-14T11:16:32.726Z,101749.31
2023-05-14T11:19:05.701Z,101736.97
2023-05-14T11:21:33.926Z,101736.75
2023-05-14T11:24:06.534Z,101739.44
2023-05-14T11:26:38.716Z,101727.94
2023-05-14T11:29:10.812Z,101730.59
2023-05-14T11:31:39.927Z,101725.34
2023-05-14T11:34:08.322Z,101726.25
2023-05-14T11:36:37.718Z,101714.53
2023-05-14T11:39:06.218Z,101712.78
2023-05-14T11:41:35.442Z,101711.94
2023-05-14T11:44:08.453Z,101707.41
2023-05-14T11:46:36.975Z,101717.28
2023-05-14T11:49:08.077Z,101707.47
2023-05-14T11:51:37.286Z,101705.47
2023-05-14T11:54:04.566Z,101704.69
2023-05-14T11:56:33.032Z,101701.16
2023-05-14T11:59:01.385Z,101701.91
2023-05-14T12:01:30.454Z,101696.31
2023-05-14T12:04:29.088Z,101692.75
2023-05-14T12:06:59.398Z,101690.00
2023-05-14T12:09:27.194Z,101692.78
2023-05-14T12:11:55.709Z,101685.47
2023-05-14T12:14:27.474Z,101689.06
2023-05-14T12:16:55.692Z,101685.44
2023-05-14T12:19:27.352Z,101690.66
2023-05-14T12:21:54.870Z,101693.22
2023-05-14T12:24:22.502Z,101693.19
2023-05-14T12:26:51.969Z,101685.56
2023-05-14T12:29:24.838Z,101685.47
2023-05-14T12:31:52.480Z,101682.91
2023-05-14T12:34:20.541Z,101683.94
2023-05-14T12:36:47.970Z,101682.06
2023-05-14T12:39:16.430Z,101672.38
2023-05-14T12:41:46.884Z,101673.41
2023-05-14T12:44:15.282Z,101671.88
2023-05-14T12:46:43.800Z,101665.47
2023-05-14T12:49:14.495Z,101666.91
2023-05-14T12:51:41.546Z,101666.44
2023-05-14T12:54:14.712Z,101661.63
2023-05-14T12:56:48.478Z,101663.44
2023-05-14T12:59:19.811Z,101661.56
2023-05-14T13:01:48.316Z,101655.22
2023-05-14T13:04:16.653Z,101651.03
2023-05-14T13:06:45.942Z,101650.13
2023-05-14T13:09:13.496Z,101663.88
2023-05-14T13:11:43.782Z,101644.22
2023-05-14T13:14:15.280Z,101659.03
2023-05-14T13:16:45.972Z,101644.66
2023-05-14T13:19:17.587Z,101649.75
2023-05-14T13:21:45.720Z,101649.56
2023-05-14T13:24:13.282Z,101641.91
2023-05-14T13:26:41.132Z,101638.53
2023-05-14T13:29:09.111Z,101637.81
2023-05-14T13:31:37.613Z,101644.69
2023-05-14T13:34:05.196Z,101636.53
2023-05-14T13:36:45.331Z,101634.84
2023-05-14T13:39:14.629Z,101637.13
2023-05-14T13:41:42.782Z,101637.84
2023-05-14T13:44:14.081Z,101637.75
2023-05-14T13:46:48.466Z,101637.09
2023-05-14T13:49:16.969Z,101632.69
2023-05-14T13:51:44.395Z,101628.03
2023-05-14T13:54:12.673Z,101623.28
2023-05-14T13:56:41.261Z,101615.25
2023-05-14T13:59:09.418Z,101610.25
2023-05-14T14:01:37.132Z,101609.41
2023-05-14T14:04:05.204Z,101616.81
2023-05-14T14:06:40.730Z,101613.69
2023-05-14T14:09:09.283Z,101614.84
2023-05-14T14:11:38.949Z,101623.13
2023-05-14T14:14:07.996Z,101618.56
2023-05-14T14:16:37.060Z,101611.09
2023-05-14T14:19:05.290Z,101615.59
2023-05-14T14:21:48.336Z,101612.59
2023-05-14T14:24:26.305Z,101610.75
2023-05-14T14:26:55.381Z,101608.59
2023-05-14T14:29:24.744Z,101600.25
2023-05-14T14:31:53.578Z,101598.91
2023-05-14T14:34:22.128Z,101608.13
2023-05-14T14:36:50.793Z,101601.06
2023-05-14T14:39:19.657Z,101601.88
2023-05-14T14:41:47.961Z,101598.50
2023-05-14T14:44:16.087Z,101597.63
2023-05-14T14:46:43.626Z,101594.84
2023-05-14T14:49:12.018Z,101595.25
2023-05-14T14:51:40.383Z,101590.19
2023-05-14T14:54:08.568Z,101597.72
2023-05-14T14:56:37.807Z,101592.22
2023-05-14T14:59:05.915Z,101599.31
2023-05-14T15:01:37.439Z,101596.22
2023-05-14T15:04:06.502Z,101599.97
2023-05-14T15:06:51.464Z,101597.00
2023-05-14T15:09:23.509Z,101594.56
2023-05-14T15:11:52.539Z,101587.44
2023-05-14T15:14:25.931Z,101593.97
2023-05-14T15:16:54.536Z,101594.81
2023-05-14T15:19:22.457Z,101599.41
2023-05-14T15:21:50.752Z,101604.94
2023-05-14T15:24:19.073Z,101605.03
2023-05-14T15:26:47.272Z,101608.88
2023-05-14T15:29:16.355Z,101602.84
2023-05-14T15:31:45.841Z,101617.78
2023-05-14T15:34:14.611Z,101609.78
2023-05-14T15:36:42.643Z,101614.56
2023-05-14T15:39:14.441Z,101611.94
2023-05-14T15:41:45.053Z,101604.97
2023-05-14T15:44:13.675Z,101613.13
2023-05-14T15:46:41.487Z,101619.28
2023-05-14T15:49:11.315Z,101609.44
2023-05-14T15:51:39.384Z,101614.56
2023-05-14T15:54:07.685Z,101612.94
2023-05-14T15:56:35.744Z,101599.56
2023-05-14T15:59:07.617Z,101596.84
2023-05-14T16:01:35.683Z,101602.69
2023-05-14T16:04:04.885Z,101606.16
2023-05-14T16:06:35.089Z,101598.28
2023-05-14T16:09:04.343Z,101607.00
2023-05-14T16:11:32.746Z,101604.50
2023-05-14T16:14:00.180Z,101607.00
2023-05-14T16:16:27.292Z,101607.88
2023-05-14T16:18:55.308Z,101609.53
2023-05-14T16:21:23.717Z,101608.06
2023-05-14T16:23:51.215Z,101604.47
2023-05-14T16:26:20.715Z,101610.66
2023-05-14T16:28:48.999Z,101609.59
2023-05-14T16:31:17.088Z,101615.75
2023-05-14T16:33:45.178Z,101611.44
2023-05-14T16:36:17.364Z,101610.69
2023-05-14T16:38:57.181Z,101612.31
2023-05-14T16:41:40.914Z,101619.63
2023-05-14T16:44:09.636Z,101609.97
2023-05-14T16:46:43.879Z,101606.47
2023-05-14T16:49:11.641Z,101609.06
2023-05-14T16:51:47.215Z,101619.78
2023-05-14T16:54:14.553Z,101617.13
2023-05-14T16:56:43.293Z,101613.69
2023-05-14T16:59:11.584Z,101619.28
2023-05-14T17:01:39.356Z,101620.28
2023-05-14T17:04:06.619Z,101619.38
2023-05-14T17:06:35.436Z,101616.81
2023-05-14T17:09:07.888Z,101629.25
2023-05-14T17:11:41.106Z,101617.63
2023-05-14T17:14:09.104Z,101627.44
2023-05-14T17:16:36.543Z,101623.91
2023-05-14T17:19:07.862Z,101620.28
2023-05-14T17:21:45.141Z,101618.59
2023-05-14T17:24:15.536Z,101628.31
2023-05-14T17:26:42.644Z,101630.09
2023-05-14T17:29:10.687Z,101644.25
2023-05-14T17:31:38.187Z,101638.31
2023-05-14T17:34:05.197Z,101625.97
2023-05-14T17:36:36.628Z,101628.63
2023-05-14T17:39:05.396Z,101633.03
2023-05-14T17:41:32.404Z,101641.00
2023-05-14T17:44:00.904Z,101647.25
2023-05-14T17:46:28.230Z,101651.75
2023-05-14T17:48:55.672Z,101643.75
2023-05-14T17:51:22.694Z,101652.59
2023-05-14T17:53:50.480Z,101643.81
2023-05-14T17:56:18.771Z,101650.91
2023-05-14T17:58:46.563Z,101650.91
2023-05-14T18:01:14.707Z,101655.38
2023-05-14T18:03:42.611Z,101665.16
2023-05-14T18:06:10.782Z,101666.03
2023-05-14T18:08:38.168Z,101657.22
2023-05-14T18:11:05.440Z,101672.22
2023-05-14T18:13:32.556Z,101670.44
2023-05-14T18:16:00.925Z,101670.47
2023-05-14T18:18:28.150Z,101674.00
2023-05-14T18:20:55.392Z,101681.94
2023-05-14T18:23:27.882Z,101674.88
2023-05-14T18:25:55.434Z,101681.03
2023-05-14T18:28:23.641Z,101683.69
2023-05-14T18:30:51.409Z,101687.22
2023-05-14T18:33:19.266Z,101688.94
2023-05-14T18:35:46.525Z,101691.63
2023-05-14T18:38:14.061Z,101688.94
2023-05-14T18:40:41.401Z,101689.81
2023-05-14T18:43:08.903Z,101673.84
2023-05-14T18:45:36.235Z,101704.72
2023-05-14T18:48:03.405Z,101706.47
2023-05-14T18:50:31.078Z,101709.94
2023-05-14T18:52:58.428Z,101700.25
2023-05-14T18:55:25.845Z,101719.59
2023-05-14T18:57:53.232Z,101713.38
2023-05-14T19:00:20.756Z,101712.47
2023-05-14T19:02:48.050Z,101721.19
2023-05-14T19:05:15.250Z,101722.91
2023-05-14T19:07:44.100Z,101726.38
2023-05-14T19:10:11.331Z,101719.31
2023-05-14T19:12:38.901Z,101726.28
2023-05-14T19:15:06.923Z,101721.00
2023-05-14T19:17:38.969Z,101739.31
2023-05-14T19:20:06.736Z,101739.31
2023-05-14T19:22:33.794Z,101740.06
2023-05-14T19:25:00.769Z,101740.06
2023-05-14T19:27:27.922Z,101736.50
2023-05-14T19:29:55.076Z,101738.19
2023-05-14T19:32:23.177Z,101739.91
2023-05-14T19:34:51.618Z,101736.31
2023-05-14T19:37:22.092Z,101740.72
2023-05-14T19:39:49.317Z,101753.00
2023-05-14T19:42:16.806Z,101744.94
2023-05-14T19:44:44.311Z,101756.38
2023-05-14T19:47:12.099Z,101755.41
2023-05-14T19:49:39.879Z,101751.81
2023-05-14T19:52:07.005Z,101761.44
2023-05-14T19:54:34.068Z,101757.84
2023-05-14T19:57:01.416Z,101765.75
2023-05-14T19:59:30.118Z,101771.00
2023-05-14T20:02:00.997Z,101768.34
2023-05-14T20:04:28.493Z,101770.84
2023-05-14T20:06:55.746Z,101764.72
2023-05-14T20:09:23.727Z,101767.34
2023-05-14T20:11:50.903Z,101769.09
2023-05-14T20:14:18.035Z,101763.69
2023-05-14T20:16:45.436Z,101771.53
2023-05-14T20:19:14.555Z,101769.75
2023-05-14T20:21:41.810Z,101773.19
2023-05-14T20:24:09.365Z,101783.72
2023-05-14T20:26:37.242Z,101785.28
2023-05-14T20:29:04.576Z,101796.56
2023-05-14T20:31:32.414Z,101805.22
2023-05-14T20:34:00.880Z,101794.69
2023-05-14T20:36:30.047Z,101798.97
2023-05-14T20:38:57.424Z,101794.47
2023-05-14T20:41:24.916Z,101800.50
2023-05-14T20:43:52.090Z,101799.50
2023-05-14T20:46:19.351Z,101802.03
2023-05-14T20:48:47.439Z,101807.28
2023-05-14T20:51:14.532Z,101810.72
2023-05-14T20:53:41.618Z,101813.28
2023-05-14T20:56:08.950Z,101806.22
2023-05-14T20:58:36.096Z,101804.34
2023-05-14T21:01:04.994Z,101816.69
2023-05-14T21:03:32.332Z,101817.59
2023-05-14T21:06:00.838Z,101817.53
2023-05-14T21:08:28.000Z,101820.06
2023-05-14T21:10:55.763Z,101823.63
2023-05-14T21:13:27.032Z,101817.56
2023-05-14T21:15:58.024Z,101819.28
2023-05-14T21:18:27.578Z,101820.13
2023-05-14T21:20:54.719Z,101823.75
2023-05-14T21:23:21.799Z,101812.34
2023-05-14T21:25:48.755Z,101823.66
2023-05-14T21:28:28.521Z,101826.31
2023-05-14T21:30:55.543Z,101820.13
2023-05-14T21:33:23.986Z,101820.06
2023-05-14T21:35:51.127Z,101816.56
2023-05-14T21:38:37.536Z,101820.06
2023-05-14T21:41:05.193Z,101813.00
2023-05-14T21:43:32.518Z,101808.63
2023-05-14T21:45:59.721Z,101817.34
2023-05-14T21:48:30.111Z,101814.72
2023-05-14T21:50:57.672Z,101811.16
2023-05-14T21:53:24.836Z,101814.56
2023-05-14T21:55:52.000Z,101816.31
2023-05-14T21:58:19.724Z,101813.69
2023-05-14T22:00:46.840Z,101814.53
2023-05-14T22:03:13.942Z,101814.56
2023-05-14T22:05:41.158Z,101816.41
2023-05-14T22:08:08.204Z,101814.47
2023-05-14T22:10:35.345Z,101816.22
2023-05-14T22:13:02.247Z,101821.38
2023-05-14T22:15:29.443Z,101818.78
2023-05-14T22:17:57.454Z,101820.47
2023-05-14T22:20:24.555Z,101818.78
2023-05-14T22:22:51.998Z,101818.72
2023-05-14T22:28:49.024Z,101825.59
2023-05-14T22:31:16.269Z,101821.34
2023-05-14T22:33:43.328Z,101836.94
2023-05-14T22:36:10.823Z,101824.66
2023-05-14T22:38:38.793Z,101821.00
2023-05-14T22:41:06.012Z,101820.94
2023-05-14T22:43:33.673Z,101821.69
2023-05-14T22:46:01.016Z,101818.13
2023-05-14T22:48:28.745Z,101821.56
2023-05-14T22:50:56.216Z,101817.03
2023-05-14T22:53:25.425Z,101818.69
2023-05-14T22:55:52.650Z,101809.78
2023-05-14T22:58:20.789Z,101818.50
2023-05-14T23:00:47.868Z,101808.00
2023-05-14T23:03:15.432Z,101807.06
2023-05-14T23:05:42.498Z,101812.09
2023-05-14T23:08:09.658Z,101808.47
2023-05-14T23:10:36.781Z,101812.78
2023-05-14T23:13:04.336Z,101809.28
2023-05-14T23:15:31.709Z,101805.84
2023-05-14T23:17:58.854Z,101801.41
2023-05-14T23:20:28.951Z,101807.50
2023-05-14T23:22:56.290Z,101796.97
2023-05-14T23:25:24.462Z,101802.97
2023-05-14T23:27:52.092Z,101805.56
2023-05-14T23:30:19.329Z,101801.25
2023-05-14T23:32:46.559Z,101799.44
2023-05-14T23:35:14.787Z,101798.44
2023-05-14T23:37:47.472Z,101799.28
2023-05-14T23:40:15.907Z,101798.31
2023-05-14T23:42:43.211Z,101795.59
2023-05-14T23:45:10.667Z,101803.31
2023-05-14T23:47:37.958Z,101801.47
2023-05-14T23:50:05.301Z,101800.50
2023-05-14T23:52:33.771Z,101796.06
2023-05-14T23:55:01.031Z,101797.75
2023-05-14T23:57:28.528Z,101797.59
2023-05-14T23:59:55.773Z,101792.41
